Time;durP1;ratioP1;P1;durP2;ratioP2;P2;SDS_P1;SDS_P2;PMS_P1;PMS_P2;Temp;Humidity;BMP_temperature;BMP_pressure;BME280_temperature;BME280_humidity;BME280_pressure;Samples;Min_cycle;Max_cycle;Signal;HPM_P1;HPM_P2
2022/12/15 00:40:06;;;;;;;11.95;7.10;;;;;;;17.42;30.86;100558.88;5022522;28;20500;-66
2022/12/15 00:42:31;;;;;;;12.48;7.32;;;;;;;17.42;30.42;100558.88;5023132;28;20159;-65
2022/12/15 00:44:57;;;;;;;12.35;7.90;;;;;;;17.41;30.39;100560.63;5022014;28;20505;-67
2022/12/15 00:47:24;;;;;;;13.30;7.97;;;;;;;17.36;30.52;100562.81;5022267;28;20079;-67
2022/12/15 01:20:16;;;;;;;13.23;7.47;;;;;;;17.26;30.15;100572.47;5022104;28;20048;-66
2022/12/15 01:22:42;;;;;;;13.30;7.82;;;;;;;17.22;30.56;100578.94;5020942;28;20537;-66
2022/12/15 01:25:08;;;;;;;11.27;7.97;;;;;;;17.22;30.22;100592.09;5021046;28;20092;-65
2022/12/15 01:27:34;;;;;;;12.82;7.95;;;;;;;17.19;30.45;100587.91;5021981;28;20545;-65
2022/12/15 01:29:59;;;;;;;12.77;7.53;;;;;;;17.16;30.58;100587.31;5022038;28;20041;-66
2022/12/15 01:32:24;;;;;;;14.10;7.80;;;;;;;17.16;30.32;100582.88;5021908;28;20041;-65
2022/12/15 01:34:50;;;;;;;12.07;7.82;;;;;;;17.20;30.54;100586.13;5021757;28;20065;-65
2022/12/15 01:37:15;;;;;;;14.48;8.10;;;;;;;17.16;30.45;100580.25;5003583;28;20535;-66
2022/12/15 01:42:24;;;;;;;11.27;8.35;;;;;;;17.16;30.19;100568.88;5021610;28;20045;-65
2022/12/15 01:44:52;;;;;;;12.88;7.75;;;;;;;17.17;30.12;100575.84;5021700;28;20033;-65
2022/12/15 01:47:22;;;;;;;11.80;7.57;;;;;;;17.14;30.39;100581.34;5021130;28;20079;-65
2022/12/15 01:49:47;;;;;;;13.60;8.00;;;;;;;17.14;30.19;100582.19;5021523;28;20083;-65
2022/12/15 01:52:15;;;;;;;11.32;7.93;;;;;;;17.14;30.26;100594.53;5021660;28;20030;-65
2022/12/15 01:54:50;;;;;;;13.55;7.97;;;;;;;17.13;29.95;100601.59;5021358;28;20036;-65
2022/12/15 01:57:25;;;;;;;13.40;8.27;;;;;;;17.15;30.32;100604.09;5021523;28;20068;-68
2022/12/15 01:59:58;;;;;;;13.38;7.20;;;;;;;17.15;30.20;100602.28;5021579;28;20057;-67
2022/12/15 02:02:27;;;;;;;13.20;7.57;;;;;;;17.14;30.12;100605.06;5020623;28;20155;-66
2022/12/15 02:04:56;;;;;;;10.70;7.68;;;;;;;17.14;30.16;100605.88;5020947;28;20412;-66
2022/12/15 02:07:22;;;;;;;10.82;7.30;;;;;;;17.16;30.28;100613.66;5019703;28;20219;-65
2022/12/15 02:09:50;;;;;;;10.65;7.60;;;;;;;17.14;30.42;100616.41;5021784;28;20124;-65
2022/12/15 02:12:33;;;;;;;12.93;7.75;;;;;;;17.17;30.10;100625.88;5021438;28;20163;-66
2022/12/15 02:15:17;;;;;;;11.23;7.53;;;;;;;17.18;30.04;100631.00;5020462;28;20456;-67
2022/12/15 02:17:54;;;;;;;11.93;7.40;;;;;;;17.18;30.04;100640.69;5020722;28;20047;-67
2022/12/15 02:20:45;;;;;;;14.70;7.28;;;;;;;17.17;30.10;100634.59;5011216;28;20485;-66
2022/12/15 02:23:56;;;;;;;13.05;8.07;;;;;;;17.19;29.99;100631.84;5020597;28;20124;-64
2022/12/15 02:27:07;;;;;;;12.43;7.50;;;;;;;17.19;30.11;100629.22;5010401;28;20080;-66
2022/12/15 02:30:05;;;;;;;10.57;8.13;;;;;;;17.19;30.12;100634.47;5021166;28;20033;-67
2022/12/15 02:32:39;;;;;;;11.60;7.55;;;;;;;17.20;30.39;100628.25;5015171;28;20052;-66
2022/12/15 02:35:11;;;;;;;12.27;7.32;;;;;;;17.19;30.36;100640.56;5020353;28;20040;-66
2022/12/15 02:37:39;;;;;;;12.65;7.00;;;;;;;17.20;30.24;100636.16;5020539;28;20111;-65
2022/12/15 02:40:07;;;;;;;10.98;7.60;;;;;;;17.18;30.03;100636.28;5020554;28;20034;-65
2022/12/15 02:42:38;;;;;;;11.85;7.20;;;;;;;17.17;30.15;100636.41;5020437;28;20119;-65
2022/12/15 02:45:15;;;;;;;12.73;7.22;;;;;;;17.21;30.31;100624.66;5020430;28;20478;-65
2022/12/15 02:47:57;;;;;;;9.82;7.13;;;;;;;17.18;29.98;100630.16;5020922;28;20038;-65
2022/12/15 02:50:47;;;;;;;9.95;7.03;;;;;;;17.19;30.52;100635.31;5020148;28;20477;-65
2022/12/15 02:53:30;;;;;;;13.48;7.85;;;;;;;17.20;30.06;100642.25;5021028;28;20140;-65
2022/12/15 02:56:20;;;;;;;11.00;6.97;;;;;;;17.21;30.09;100641.31;5020678;28;20041;-65
2022/12/15 02:59:04;;;;;;;12.73;7.50;;;;;;;17.19;30.33;100637.94;5020589;28;20050;-65
2022/12/15 03:01:39;;;;;;;10.52;7.40;;;;;;;17.22;30.36;100642.13;5020834;28;20041;-66
2022/12/15 03:04:07;;;;;;;10.77;7.13;;;;;;;17.23;30.24;100642.00;5020437;28;20490;-65
2022/12/15 03:06:32;;;;;;;10.25;6.70;;;;;;;17.23;30.52;100639.38;5020837;28;20152;-65
2022/12/15 03:08:57;;;;;;;11.15;7.28;;;;;;;17.23;30.13;100638.56;5020144;28;20148;-66
2022/12/15 03:11:23;;;;;;;10.88;6.75;;;;;;;17.24;30.27;100642.84;5020766;28;20474;-66
2022/12/15 03:13:48;;;;;;;11.10;7.43;;;;;;;17.22;30.05;100644.75;5020987;28;20168;-65
2022/12/15 03:16:14;;;;;;;11.02;7.50;;;;;;;17.25;29.68;100648.97;5020489;28;20037;-64
2022/12/15 03:18:39;;;;;;;11.00;6.95;;;;;;;17.21;30.24;100651.84;5020186;28;20029;-67
2022/12/15 03:21:04;;;;;;;11.45;7.07;;;;;;;17.25;30.31;100649.78;5020596;28;20038;-67
2022/12/15 03:23:30;;;;;;;11.05;7.32;;;;;;;17.23;30.15;100657.81;5020711;28;20025;-65
2022/12/15 03:25:55;;;;;;;10.90;6.78;;;;;;;17.25;30.20;100654.22;5020142;28;20041;-65
2022/12/15 03:28:20;;;;;;;9.32;6.88;;;;;;;17.22;30.56;100656.13;5020292;28;20476;-66
2022/12/15 03:30:47;;;;;;;11.57;6.63;;;;;;;17.21;30.16;100657.09;5020067;28;20041;-65
2022/12/15 03:33:12;;;;;;;10.77;7.80;;;;;;;17.24;30.00;100658.63;5020502;28;20032;-64
2022/12/15 03:35:38;;;;;;;11.50;6.80;;;;;;;17.24;30.41;100658.63;5019778;28;20970;-64
2022/12/15 03:38:03;;;;;;;12.35;7.30;;;;;;;17.25;30.37;100656.88;5020206;28;20034;-63
2022/12/15 03:40:28;;;;;;;11.38;7.65;;;;;;;17.24;30.36;100658.63;5019640;28;20092;-65
2022/12/15 03:42:53;;;;;;;12.15;7.40;;;;;;;17.22;30.15;100652.66;5020426;28;20038;-65
2022/12/15 03:45:22;;;;;;;13.43;7.70;;;;;;;17.22;30.26;100661.41;5020367;28;20447;-66
2022/12/15 03:47:48;;;;;;;10.73;6.72;;;;;;;17.22;30.38;100666.66;5023909;28;20757;-66
2022/12/15 03:50:15;;;;;;;11.80;7.30;;;;;;;17.24;30.32;100671.81;5023329;28;20113;-67
2022/12/15 03:52:41;;;;;;;12.02;7.30;;;;;;;17.21;30.22;100661.50;5023355;28;20037;-67
2022/12/15 03:55:07;;;;;;;11.95;7.03;;;;;;;17.23;30.23;100662.25;5023125;28;20030;-66
2022/12/15 03:57:33;;;;;;;12.80;7.07;;;;;;;17.24;29.96;100674.44;5023491;28;20491;-66
2022/12/15 03:59:58;;;;;;;11.93;6.95;;;;;;;17.23;30.09;100670.16;5023345;28;20457;-64
2022/12/15 04:02:23;;;;;;;11.48;6.75;;;;;;;17.22;30.38;100666.66;5021108;28;20041;-67
2022/12/15 04:04:49;;;;;;;11.07;7.30;;;;;;;17.23;30.03;100663.06;5023071;28;20075;-63
2022/12/15 04:07:14;;;;;;;12.68;7.70;;;;;;;17.19;30.14;100659.00;5023609;28;20091;-64
2022/12/15 04:09:40;;;;;;;11.98;7.28;;;;;;;17.23;30.16;100664.88;5022409;28;20924;-66
2022/12/15 04:12:06;;;;;;;11.45;7.15;;;;;;;17.22;30.03;100669.28;5023508;28;20103;-63
2022/12/15 04:14:31;;;;;;;13.30;7.38;;;;;;;17.19;30.43;100651.09;5022207;28;20107;-66
2022/12/15 04:16:56;;;;;;;9.85;6.63;;;;;;;17.21;30.25;100659.75;5023444;28;20029;-65
2022/12/15 04:22:05;;;;;;;13.63;7.53;;;;;;;17.18;30.11;100648.59;5023419;28;20032;-66
2022/12/15 05:32:52;;;;;;;12.52;7.25;;;;;;;17.20;30.23;100694.09;5021981;28;20524;-64
2022/12/15 05:35:17;;;;;;;12.05;7.70;;;;;;;17.17;30.48;100695.16;5021192;28;20128;-63
2022/12/15 05:37:42;;;;;;;12.48;7.20;;;;;;;17.20;30.41;100705.47;5021941;28;20135;-66
2022/12/15 05:40:08;;;;;;;11.57;7.65;;;;;;;17.21;30.60;100715.03;5021738;28;20378;-64
2022/12/15 05:42:33;;;;;;;11.50;6.53;;;;;;;17.25;31.18;100717.44;5021272;28;20461;-66
2022/12/15 05:44:58;;;;;;;8.43;5.97;;;;;;;17.28;31.87;100715.38;5021287;28;20040;-64
2022/12/15 05:47:24;;;;;;;9.10;5.78;;;;;;;17.28;31.72;100704.03;5021818;28;20029;-63
2022/12/15 05:49:50;;;;;;;11.27;5.80;;;;;;;17.33;31.69;100707.94;5020996;28;20057;-64
2022/12/15 05:52:15;;;;;;;9.38;6.20;;;;;;;17.40;31.59;100705.66;5021691;28;20037;-64
2022/12/15 05:54:41;;;;;;;10.02;6.22;;;;;;;17.44;31.91;100717.63;5020293;28;20029;-65
2022/12/15 05:57:06;;;;;;;8.00;5.28;;;;;;;17.49;31.79;100712.00;5021490;28;20033;-67
2022/12/15 05:59:32;;;;;;;9.40;5.70;;;;;;;17.52;31.49;100715.22;5021272;28;20140;-64
2022/12/15 06:01:57;;;;;;;9.85;6.25;;;;;;;17.58;31.78;100727.06;5020686;28;20525;-65
2022/12/15 06:04:22;;;;;;;9.45;5.93;;;;;;;17.57;31.87;100718.31;5019516;28;20042;-66
2022/12/15 06:06:47;;;;;;;10.38;6.25;;;;;;;17.63;31.47;100726.69;5019525;28;20143;-66
2022/12/15 06:09:13;;;;;;;10.43;6.00;;;;;;;17.65;31.64;100725.59;5020300;28;20037;-67
2022/12/15 06:11:38;;;;;;;10.05;6.40;;;;;;;17.67;31.36;100717.56;5020902;28;20314;-65
2022/12/15 06:14:03;;;;;;;10.20;6.55;;;;;;;17.68;31.81;100714.81;5020062;28;20080;-66
2022/12/15 06:16:29;;;;;;;9.77;5.57;;;;;;;17.70;31.92;100706.78;5020567;28;20044;-68
2022/12/15 06:18:58;;;;;;;11.25;6.20;;;;;;;17.73;31.89;100722.34;5021073;28;20033;-66
2022/12/15 06:21:26;;;;;;;10.30;6.20;;;;;;;17.75;31.78;100721.28;5020885;28;20048;-66
2022/12/15 06:23:52;;;;;;;8.73;6.15;;;;;;;17.75;31.87;100723.91;5020914;28;20210;-67
2022/12/15 06:26:32;;;;;;;12.32;6.15;;;;;;;17.77;31.51;100721.16;5019100;28;20451;-67
2022/12/15 06:29:03;;;;;;;9.10;5.80;;;;;;;17.77;31.51;100719.34;5018957;28;20072;-66
2022/12/15 06:31:30;;;;;;;9.90;5.95;;;;;;;17.80;31.74;100720.03;5019765;28;20034;-65
2022/12/15 06:33:56;;;;;;;9.65;6.38;;;;;;;17.80;31.49;100722.69;5021146;28;20588;-65
2022/12/15 06:36:27;;;;;;;9.35;5.97;;;;;;;17.80;31.41;100728.81;5020243;28;20049;-64
2022/12/15 06:38:52;;;;;;;10.20;6.47;;;;;;;17.79;31.59;100729.75;5019981;28;20378;-65
2022/12/15 06:41:20;;;;;;;7.97;5.78;;;;;;;17.80;31.69;100731.44;5021406;28;20045;-67
2022/12/15 06:43:54;;;;;;;11.95;6.43;;;;;;;17.80;31.56;100736.72;5020017;28;20541;-68
2022/12/15 06:46:20;;;;;;;11.32;6.22;;;;;;;17.81;31.58;100745.44;5018815;28;20045;-65
2022/12/15 06:48:47;;;;;;;9.82;6.35;;;;;;;17.82;31.75;100741.88;5020648;28;20127;-66
2022/12/15 06:51:14;;;;;;;11.43;6.68;;;;;;;17.82;31.42;100740.06;5020339;28;20109;-66
2022/12/15 06:53:40;;;;;;;10.20;6.15;;;;;;;17.83;31.86;100735.59;5020853;28;20044;-64
2022/12/15 06:56:16;;;;;;;11.13;6.40;;;;;;;17.81;31.11;100734.91;5019387;28;20819;-64
2022/12/15 06:58:41;;;;;;;9.15;6.05;;;;;;;17.82;31.49;100737.41;5020787;28;20072;-65
2022/12/15 07:01:07;;;;;;;13.50;6.57;;;;;;;17.80;31.52;100733.22;5020811;28;20061;-66
2022/12/15 07:03:33;;;;;;;10.30;6.85;;;;;;;17.79;31.40;100727.13;5020088;28;20025;-65
2022/12/15 07:06:07;;;;;;;8.98;6.15;;;;;;;17.81;31.82;100738.38;5020484;28;20044;-66
2022/12/15 07:08:33;;;;;;;10.05;6.72;;;;;;;17.81;31.50;100735.72;5018932;28;20034;-66
2022/12/15 07:10:58;;;;;;;9.82;6.60;;;;;;;17.81;31.52;100741.00;5020607;28;20390;-65
2022/12/15 07:13:24;;;;;;;11.60;6.70;;;;;;;17.83;31.69;100749.66;5020531;28;20029;-66
2022/12/15 07:15:50;;;;;;;9.90;5.88;;;;;;;17.82;31.93;100747.13;5020389;28;20116;-67
2022/12/15 07:18:16;;;;;;;10.75;6.38;;;;;;;17.83;31.85;100748.78;5020363;28;20124;-65
2022/12/15 07:20:42;;;;;;;10.85;6.05;;;;;;;17.85;32.19;100744.22;5022149;28;20029;-65
2022/12/15 07:23:08;;;;;;;10.02;6.32;;;;;;;17.87;32.42;100744.97;5023934;28;20038;-65
2022/12/15 07:25:38;;;;;;;11.95;6.47;;;;;;;17.86;32.65;100746.72;5023780;28;20397;-67
2022/12/15 07:28:05;;;;;;;11.52;6.40;;;;;;;17.91;32.46;100752.53;5023918;28;20033;-66
2022/12/15 07:30:31;;;;;;;9.75;6.07;;;;;;;17.92;32.28;100755.97;5024276;28;20038;-64
2022/12/15 07:32:57;;;;;;;9.90;6.18;;;;;;;17.93;32.40;100762.94;5023997;28;20025;-69
2022/12/15 07:35:22;;;;;;;10.43;6.47;;;;;;;17.97;32.71;100758.25;5023770;28;20142;-68
2022/12/15 07:37:47;;;;;;;8.88;5.88;;;;;;;17.98;32.66;100757.28;5024018;28;20034;-66
2022/12/15 07:40:13;;;;;;;9.98;6.10;;;;;;;17.98;32.74;100760.75;5024130;28;20033;-64
2022/12/15 07:42:38;;;;;;;9.40;5.80;;;;;;;18.02;32.44;100766.63;5024168;28;20040;-66
2022/12/15 07:45:04;;;;;;;9.70;6.25;;;;;;;18.01;32.43;100762.28;5023700;28;20041;-65
2022/12/15 07:47:30;;;;;;;10.38;6.00;;;;;;;18.03;32.73;100769.13;5023237;28;20037;-64
2022/12/15 07:49:55;;;;;;;10.20;6.45;;;;;;;18.00;32.46;100761.47;5022921;28;20042;-67
2022/12/15 07:52:22;;;;;;;9.30;5.85;;;;;;;18.02;32.60;100759.53;5023695;28;20379;-64
2022/12/15 07:54:47;;;;;;;10.32;6.00;;;;;;;18.03;32.85;100763.84;5023156;28;20029;-67
2022/12/15 07:57:13;;;;;;;11.95;6.20;;;;;;;18.03;32.65;100766.50;5023982;28;20041;-66
2022/12/15 07:59:38;;;;;;;8.63;5.47;;;;;;;18.01;32.74;100768.41;5023297;28;20072;-65
2022/12/15 08:02:04;;;;;;;9.93;6.18;;;;;;;18.04;32.92;100776.09;5023399;28;20037;-65
2022/12/15 08:04:32;;;;;;;8.60;5.78;;;;;;;18.03;32.86;100784.94;5023158;28;20041;-65
2022/12/15 08:06:57;;;;;;;11.73;6.10;;;;;;;18.03;33.16;100782.31;5023570;28;20030;-65
2022/12/15 08:09:23;;;;;;;8.57;5.97;;;;;;;18.05;32.63;100784.81;5022562;28;20048;-67
2022/12/15 08:11:49;;;;;;;10.13;5.50;;;;;;;18.07;33.01;100788.16;5023519;28;20547;-66
2022/12/15 08:14:15;;;;;;;9.95;6.05;;;;;;;18.06;32.77;100794.41;5023248;28;20037;-65
2022/12/15 08:16:40;;;;;;;9.23;5.75;;;;;;;18.06;33.06;100781.22;5022592;28;20040;-65
2022/12/15 08:19:09;;;;;;;8.63;5.80;;;;;;;18.07;33.00;100780.25;5023257;28;20107;-65
2022/12/15 08:21:34;;;;;;;9.40;5.75;;;;;;;18.07;33.03;100783.75;5023315;28;20033;-65
2022/12/15 08:24:00;;;;;;;9.27;5.90;;;;;;;18.09;33.08;100781.81;5023120;28;20050;-66
2022/12/15 08:26:26;;;;;;;12.98;6.32;;;;;;;18.08;32.66;100782.75;5019416;28;20033;-64
2022/12/15 08:28:51;;;;;;;12.82;7.10;;;;;;;18.11;32.43;100794.88;5020853;28;20025;-68
2022/12/15 08:31:22;;;;;;;11.65;7.22;;;;;;;18.12;31.88;100792.13;5022108;28;20473;-67
2022/12/15 08:33:48;;;;;;;11.40;6.55;;;;;;;18.11;32.01;100789.59;5022058;28;20037;-66
2022/12/15 08:36:16;;;;;;;9.32;6.72;;;;;;;18.11;31.74;100787.78;5021624;28;20487;-69
2022/12/15 08:38:43;;;;;;;9.55;7.03;;;;;;;18.09;31.71;100779.19;5021830;28;20117;-67
2022/12/15 08:41:11;;;;;;;9.45;6.45;;;;;;;18.12;31.54;100791.28;5021047;28;20728;-66
2022/12/15 08:43:37;;;;;;;11.10;6.97;;;;;;;18.10;31.81;100793.19;5021288;28;20122;-68
2022/12/15 08:46:03;;;;;;;12.60;7.32;;;;;;;18.09;31.98;100789.72;5021329;28;20124;-66
2022/12/15 08:48:28;;;;;;;10.23;6.43;;;;;;;18.13;31.93;100790.31;5021973;28;20041;-67
2022/12/15 08:50:55;;;;;;;11.25;6.68;;;;;;;18.14;31.80;100799.91;5021645;28;20044;-66
2022/12/15 08:53:20;;;;;;;12.77;7.03;;;;;;;18.13;31.86;100796.44;5022365;28;20061;-67
2022/12/15 08:55:45;;;;;;;11.35;6.85;;;;;;;18.13;32.00;100796.44;5020945;28;20060;-67
2022/12/15 08:58:11;;;;;;;9.68;7.00;;;;;;;18.16;31.88;100802.41;5022520;28;20060;-67
2022/12/15 09:00:36;;;;;;;9.85;6.88;;;;;;;18.18;31.69;100808.38;5021534;28;20045;-67
2022/12/15 09:03:01;;;;;;;10.60;6.90;;;;;;;18.16;31.64;100808.50;5021863;28;20370;-66
2022/12/15 09:05:27;;;;;;;12.05;7.05;;;;;;;18.21;31.88;100813.41;5021397;28;20116;-68
2022/12/15 09:07:55;;;;;;;10.40;7.00;;;;;;;18.19;31.81;100824.09;5021489;28;20069;-68
2022/12/15 09:10:22;;;;;;;10.98;7.28;;;;;;;18.21;31.52;100832.72;5021282;28;20111;-68
2022/12/15 09:12:47;;;;;;;13.32;6.97;;;;;;;18.20;31.89;100830.19;5016621;28;20116;-67
2022/12/15 09:15:12;;;;;;;11.35;7.40;;;;;;;18.22;31.61;100834.41;5019542;28;20116;-66
2022/12/15 09:17:38;;;;;;;10.85;7.20;;;;;;;18.22;32.22;100830.94;5021120;28;20041;-68
2022/12/15 09:20:04;;;;;;;11.35;7.43;;;;;;;18.26;32.02;100841.09;5020817;28;20040;-67
2022/12/15 09:22:30;;;;;;;8.80;6.60;;;;;;;18.26;32.04;100841.09;5020949;28;20519;-67
2022/12/15 09:24:55;;;;;;;13.05;7.40;;;;;;;18.27;32.11;100850.69;5021187;28;20041;-67
2022/12/15 09:27:21;;;;;;;10.52;6.85;;;;;;;18.29;32.01;100847.91;5021699;28;20045;-69
2022/12/15 09:29:46;;;;;;;10.90;7.20;;;;;;;18.28;31.94;100860.28;5020254;28;20037;-67
2022/12/15 09:32:12;;;;;;;11.25;7.20;;;;;;;18.31;32.02;100860.03;5020005;28;20033;-68
2022/12/15 09:34:38;;;;;;;11.95;7.68;;;;;;;18.29;31.70;100858.47;5020781;28;20040;-68
2022/12/15 09:37:03;;;;;;;11.35;7.03;;;;;;;18.31;31.99;100865.31;5021388;28;20386;-68
2022/12/15 09:39:29;;;;;;;9.20;7.35;;;;;;;18.29;31.36;100861.97;5020572;28;20035;-70
2022/12/15 09:41:58;;;;;;;11.82;7.85;;;;;;;18.26;31.43;100864.84;5035765;28;20363;-66
2022/12/15 09:44:26;;;;;;;14.00;7.15;;;;;;;18.30;31.89;100873.34;5020174;28;20029;-67
2022/12/15 09:46:52;;;;;;;11.00;7.30;;;;;;;18.33;31.50;100872.25;5020348;28;20044;-67
2022/12/15 09:49:46;;;;;;;15.45;7.65;;;;;;;18.31;31.89;100873.22;5020745;28;20034;-69
2022/12/15 09:52:16;;;;;;;11.00;6.93;;;;;;;18.33;31.81;100874.91;5020693;28;20660;-68
2022/12/15 09:54:43;;;;;;;12.55;7.15;;;;;;;18.32;31.81;100887.25;5020535;28;20121;-66
2022/12/15 09:57:33;;;;;;;10.50;7.43;;;;;;;18.30;31.90;100884.72;5020154;28;20072;-67
2022/12/15 10:00:10;;;;;;;13.48;7.55;;;;;;;18.32;31.78;100879.31;5020943;28;20052;-68
2022/12/15 10:03:08;;;;;;;10.73;7.50;;;;;;;18.33;32.11;100878.38;5019745;28;20513;-68
2022/12/15 10:05:52;;;;;;;10.95;7.63;;;;;;;18.33;32.16;100877.53;4999434;28;20053;-66
2022/12/15 10:08:18;;;;;;;14.13;8.07;;;;;;;18.31;32.19;100869.75;5020170;28;20037;-68
2022/12/15 10:11:12;;;;;;;12.50;7.90;;;;;;;18.33;32.19;100877.53;5020246;28;20033;-68
2022/12/15 10:13:46;;;;;;;11.35;7.70;;;;;;;18.31;32.45;100880.31;5020939;28;20099;-67
2022/12/15 10:16:35;;;;;;;9.63;6.68;;;;;;;18.33;32.24;100874.91;5019278;28;20040;-66
2022/12/15 10:19:22;;;;;;;12.82;7.93;;;;;;;18.32;32.46;100868.78;5019460;28;20120;-67
2022/12/15 10:21:48;;;;;;;10.77;7.53;;;;;;;18.33;32.31;100872.25;5020672;28;20076;-66
2022/12/15 10:24:16;;;;;;;14.57;7.70;;;;;;;18.30;31.93;100868.06;5019795;28;20053;-67
2022/12/15 10:26:42;;;;;;;13.05;7.45;;;;;;;18.29;31.94;100863.75;5019084;28;21011;-67
2022/12/15 10:29:44;;;;;;;11.82;7.35;;;;;;;18.34;31.95;100869.50;5020274;28;20061;-67
2022/12/15 10:32:29;;;;;;;14.85;8.05;;;;;;;18.30;32.27;100866.25;5015792;28;20100;-69
2022/12/15 10:34:54;;;;;;;11.00;7.75;;;;;;;18.31;31.96;100870.59;5019146;28;20060;-67
2022/12/15 10:37:20;;;;;;;13.38;7.40;;;;;;;18.28;32.15;100875.28;5019810;28;20493;-67
2022/12/15 10:39:48;;;;;;;12.82;7.50;;;;;;;18.32;32.53;100874.03;5020196;28;20037;-68
2022/12/15 10:42:22;;;;;;;11.85;7.55;;;;;;;18.29;32.19;100877.78;5018754;28;20033;-67
2022/12/15 10:44:56;;;;;;;13.15;7.72;;;;;;;18.31;32.60;100880.31;5019998;28;20036;-69
2022/12/15 10:47:27;;;;;;;10.68;7.13;;;;;;;18.32;32.65;100887.25;5019392;28;20084;-68
2022/12/15 10:49:54;;;;;;;12.07;7.60;;;;;;;18.32;32.60;100881.97;5020150;28;20091;-67
2022/12/15 10:52:31;;;;;;;12.52;7.78;;;;;;;18.31;32.36;100877.66;5019877;28;20037;-66
2022/12/15 10:54:56;;;;;;;10.38;7.57;;;;;;;18.32;32.72;100879.31;5021280;28;20393;-68
2022/12/15 10:57:26;;;;;;;11.50;7.32;;;;;;;18.32;32.47;100879.31;5022629;28;20038;-66
2022/12/15 10:59:53;;;;;;;12.07;7.32;;;;;;;18.31;32.66;100872.38;5023439;28;20485;-67
2022/12/15 11:02:19;;;;;;;10.10;6.97;;;;;;;18.32;32.52;100876.69;5024147;28;20048;-67
2022/12/15 11:04:55;;;;;;;11.87;6.40;;;;;;;18.27;32.94;100868.31;5023602;28;20429;-64
2022/12/15 11:07:22;;;;;;;11.40;7.28;;;;;;;18.34;32.53;100879.19;5023419;28;21303;-68
2022/12/15 11:09:48;;;;;;;13.23;7.93;;;;;;;18.34;32.76;100885.34;5024179;28;20156;-67
2022/12/15 11:15:22;;;;;;;10.02;6.60;;;;;;;18.36;32.63;100880.75;5023728;28;20044;-67
2022/12/15 11:18:22;;;;;;;10.70;6.60;;;;;;;18.33;33.04;100878.38;5020434;28;20506;-64
2022/12/15 11:20:56;;;;;;;10.05;6.95;;;;;;;18.34;33.12;100879.19;5012157;28;20045;-65
2022/12/15 11:23:31;;;;;;;;;;;;;;;18.40;32.70;100870.78;5023002;28;20033;-66
2022/12/15 11:26:03;;;;;;;10.77;6.45;;;;;;;18.36;32.92;100857.00;5024200;28;20035;-66
2022/12/15 11:28:37;;;;;;;13.98;6.82;;;;;;;18.34;32.98;100871.28;5023777;28;20048;-66
2022/12/15 11:31:16;;;;;;;15.65;6.85;;;;;;;18.29;33.08;100871.66;4997701;28;20056;-66
2022/12/15 11:33:41;;;;;;;10.55;6.57;;;;;;;18.29;33.06;100869.88;5024505;28;20171;-67
2022/12/15 11:36:19;;;;;;;13.70;6.82;;;;;;;18.24;33.46;100863.28;5021637;28;20061;-65
2022/12/15 11:38:51;;;;;;;10.70;6.90;;;;;;;18.21;33.35;100869.63;5023776;28;20051;-66
2022/12/15 11:41:33;;;;;;;14.07;6.97;;;;;;;18.21;33.52;100869.63;5023680;28;20060;-68
2022/12/15 11:44:22;;;;;;;10.00;6.53;;;;;;;18.22;33.56;100875.78;5023331;28;20064;-70
2022/12/15 11:46:59;;;;;;;9.45;6.53;;;;;;;18.21;33.58;100874.91;5023755;28;20033;-68
2022/12/15 11:49:58;;;;;;;9.10;6.50;;;;;;;18.20;33.74;100869.75;5023356;28;20119;-68
2022/12/15 11:52:51;;;;;;;12.65;7.00;;;;;;;18.19;33.72;100876.84;5024211;28;20040;-69
2022/12/15 11:55:22;;;;;;;10.75;6.20;;;;;;;18.19;33.73;100866.28;5023640;28;20116;-68
2022/12/15 11:58:23;;;;;;;12.85;6.65;;;;;;;18.18;34.15;100869.88;5023890;28;20108;-67
2022/12/15 12:00:54;;;;;;;9.77;7.35;;;;;;;18.19;33.21;100862.81;5004698;28;20041;-66
2022/12/15 12:03:32;;;;;;;11.55;7.57;;;;;;;18.16;34.12;100853.34;5022423;28;20120;-67
2022/12/15 12:06:50;;;;;;;12.23;6.57;;;;;;;18.20;34.25;100853.94;5020482;28;20042;-66
2022/12/15 12:09:23;;;;;;;11.88;6.38;;;;;;;18.20;34.21;100854.78;5017497;28;20042;-67
2022/12/15 12:11:55;;;;;;;9.48;5.97;;;;;;;18.18;34.55;100853.22;5022124;28;20042;-65
2022/12/15 12:14:38;;;;;;;9.85;6.28;;;;;;;18.18;33.95;100845.31;5021394;28;20500;-68
2022/12/15 12:17:10;;;;;;;9.40;5.82;;;;;;;18.20;34.49;100848.66;5023153;28;20079;-67
2022/12/15 12:19:47;;;;;;;10.35;6.47;;;;;;;18.20;34.09;100836.31;5023388;28;20066;-64
2022/12/15 12:22:28;;;;;;;7.75;5.88;;;;;;;18.21;33.88;100843.25;5023222;28;20041;-66
2022/12/15 12:25:08;;;;;;;10.55;6.97;;;;;;;18.18;34.51;100842.69;5023312;28;20029;-65
2022/12/15 12:27:45;;;;;;;9.98;5.85;;;;;;;18.15;34.69;100835.88;5022745;28;20030;-66
2022/12/15 12:30:14;;;;;;;11.30;7.00;;;;;;;18.21;34.51;100845.06;5018218;28;20041;-66
2022/12/15 12:32:57;;;;;;;10.95;7.00;;;;;;;18.20;34.05;100827.56;5022166;28;20038;-67
2022/12/15 12:35:31;;;;;;;16.08;7.07;;;;;;;18.20;34.34;100836.31;5020534;28;20034;-67
2022/12/15 12:38:02;;;;;;;11.70;7.43;;;;;;;18.21;34.62;100827.44;5021382;28;20519;-68
2022/12/15 12:40:45;;;;;;;12.57;7.20;;;;;;;18.22;34.60;100837.03;5020576;28;20068;-66
2022/12/15 12:43:26;;;;;;;15.35;7.93;;;;;;;18.22;34.63;100828.28;5020931;28;20303;-68
2022/12/15 12:46:01;;;;;;;14.88;8.02;;;;;;;18.26;35.01;100840.25;5019911;28;20053;-65
2022/12/15 12:48:33;;;;;;;12.77;8.13;;;;;;;18.21;35.28;100834.53;5020548;28;20067;-63
2022/12/15 12:51:28;;;;;;;13.65;8.10;;;;;;;18.25;35.18;100833.31;5019760;28;20033;-66
2022/12/15 12:53:54;;;;;;;11.57;8.05;;;;;;;18.26;35.24;100834.97;4989226;28;20124;-65
2022/12/15 12:56:30;;;;;;;11.45;7.70;;;;;;;18.26;35.70;100827.06;5016811;28;20030;-65
2022/12/15 12:58:55;;;;;;;11.90;7.97;;;;;;;18.26;35.25;100819.16;5020830;28;20025;-66
2022/12/15 13:01:31;;;;;;;13.18;8.80;;;;;;;18.27;35.47;100820.81;5020915;28;20083;-65
2022/12/15 13:04:11;;;;;;;13.63;8.73;;;;;;;18.25;35.17;100806.94;5021966;28;20060;-67
2022/12/15 13:06:39;;;;;;;11.70;8.57;;;;;;;18.28;35.58;100812.78;5021073;28;20087;-64
2022/12/15 13:09:17;;;;;;;11.57;8.07;;;;;;;18.31;35.51;100809.06;5021024;28;20033;-66
2022/12/15 13:11:46;;;;;;;14.07;8.77;;;;;;;18.29;35.67;100795.16;5020813;28;20041;-67
2022/12/15 13:14:17;;;;;;;12.85;8.95;;;;;;;18.31;35.58;100803.78;5019606;28;20074;-64
2022/12/15 13:16:45;;;;;;;12.10;8.90;;;;;;;18.31;35.98;100803.78;5020815;28;20033;-66
2022/12/15 13:19:11;;;;;;;14.25;8.93;;;;;;;18.31;35.65;100788.78;5014786;28;20085;-67
2022/12/15 13:24:33;;;;;;;12.90;9.68;;;;;;;18.39;35.29;100792.59;5018705;28;20042;-66
2022/12/15 13:27:07;;;;;;;12.48;8.88;;;;;;;18.39;35.21;100789.94;5021028;28;20040;-66
2022/12/15 13:29:53;;;;;;;13.07;9.10;;;;;;;18.40;35.28;100787.19;5020712;28;20029;-67
2022/12/15 13:32:36;;;;;;;12.70;9.95;;;;;;;18.42;35.61;100790.53;5020175;28;20224;-68
2022/12/15 13:35:20;;;;;;;16.30;9.60;;;;;;;18.39;35.79;100784.66;5020479;28;20037;-66
2022/12/15 13:37:52;;;;;;;17.33;10.23;;;;;;;18.41;35.56;100780.13;5013136;28;20278;-68
2022/12/15 13:40:34;;;;;;;15.57;10.82;;;;;;;18.40;35.40;100778.44;5018856;28;20097;-67
2022/12/15 13:42:59;;;;;;;13.10;9.82;;;;;;;18.40;35.65;100776.63;5016972;28;20033;-70
2022/12/15 13:45:44;;;;;;;14.98;10.48;;;;;;;18.40;35.81;100778.44;5018029;28;20901;-69
2022/12/15 13:48:34;;;;;;;14.40;10.35;;;;;;;18.40;35.50;100776.63;5015220;28;20081;-65
2022/12/15 13:51:24;;;;;;;14.90;10.35;;;;;;;18.37;35.69;100779.50;5016550;28;20075;-67
2022/12/15 13:54:14;;;;;;;16.20;11.30;;;;;;;18.34;35.92;100787.72;5015364;28;20044;-67
2022/12/15 13:57:11;;;;;;;14.45;10.15;;;;;;;18.49;36.34;100772.41;5005761;28;20042;-67
2022/12/15 13:59:46;;;;;;;14.48;10.30;;;;;;;18.53;35.75;100757.97;5013474;28;20045;-68
2022/12/15 14:02:25;;;;;;;16.42;10.73;;;;;;;18.81;34.67;100780.22;5018242;28;20053;-71
2022/12/15 14:05:11;;;;;;;14.50;10.82;;;;;;;18.94;34.46;100774.75;5019691;28;20045;-68
2022/12/15 14:07:44;;;;;;;12.80;10.15;;;;;;;18.82;35.19;100771.34;5019801;28;20863;-68